^^
Saratoga-Weather Station Historical Data
Daily Summary for March 01, 2021 Units:  Both    English   Metric
Daily Weekly Monthly Yearly Custom
  High: Low: Average:
Temperature: 38.5 °F /  3.6 °C 36.1 °F /  2.3 °C 37.2 °F /  2.9 °C
Dew Point: 31.5 °F /  -0.3 °C 30.4 °F /  -0.9 °C 30.9 °F /  -0.6 °C
Humidity: 81% 75% 78%
Wind Speed: 0.9mph /  1.4km/h - 0.1mph /  0.2km/h
Wind Gust: 2mph /  3.2km/h - -
Wind- - ESE
Pressure: 30.5 in /  1031.5 hPa 30.5 in /  1031.2 hPa -
Precipitation: 0 in /  0.0 mm    
Historical Graphs
 
 
Tabular Data for March 01, 2021
Time Temperature Dew Point Pressure Wind Wind Speed Wind Gust Humidity Rainfall Rate (Hourly) solar
00:04 38.3 °F /  3.5 °C 31.5 °F /  -0.3 °C 30.5in /  1031.5hPa Calm   2mph /  3.2km/h 76% 0in /  0.0mm 0 W/m2
00:09 38.3 °F /  3.5 °C 31.1 °F /  -0.5 °C 30.5in /  1031.5hPa Calm   1mph /  1.6km/h 75% 0in /  0.0mm 0 W/m2
00:14 38.3 °F /  3.5 °C 31.1 °F /  -0.5 °C 30.5in /  1031.5hPa Calm   2mph /  3.2km/h 75% 0in /  0.0mm 0 W/m2
00:19 38.5 °F /  3.6 °C 31.3 °F /  -0.4 °C 30.5in /  1031.5hPa Calm   1mph /  1.6km/h 75% 0in /  0.0mm 0 W/m2
00:24 38.5 °F /  3.6 °C 31.3 °F /  -0.4 °C 30.5in /  1031.5hPa Calm   2mph /  3.2km/h 75% 0in /  0.0mm 0 W/m2
00:29 38.3 °F /  3.5 °C 31.1 °F /  -0.5 °C 30.5in /  1031.5hPa ESE 0.9mph /  1.4km/h 1mph /  1.6km/h 75% 0in /  0.0mm 0 W/m2
00:34 38.1 °F /  3.4 °C 30.9 °F /  -0.6 °C 30.5in /  1031.5hPa Calm   1mph /  1.6km/h 75% 0in /  0.0mm 0 W/m2
00:39 37.8 °F /  3.2 °C 30.9 °F /  -0.6 °C 30.5in /  1031.5hPa Calm     76% 0in /  0.0mm 0 W/m2
00:44 37.8 °F /  3.2 °C 31.3 °F /  -0.4 °C 30.5in /  1031.5hPa Calm   1mph /  1.6km/h 77% 0in /  0.0mm 0 W/m2
00:49 37.6 °F /  3.1 °C 31.1 °F /  -0.5 °C 30.5in /  1031.5hPa Calm     77% 0in /  0.0mm 0 W/m2
00:54 37.2 °F /  2.9 °C 30.7 °F /  -0.7 °C 30.5in /  1031.5hPa Calm   1mph /  1.6km/h 77% 0in /  0.0mm 0 W/m2
00:59 37.2 °F /  2.9 °C 30.7 °F /  -0.7 °C 30.5in /  1031.5hPa Calm     77% 0in /  0.0mm 0 W/m2
01:04 37 °F /  2.8 °C 30.7 °F /  -0.7 °C 30.5in /  1031.5hPa Calm   2mph /  3.2km/h 78% 0in /  0.0mm 0 W/m2
01:09 36.9 °F /  2.7 °C 30.9 °F /  -0.6 °C 30.5in /  1031.5hPa Calm     79% 0in /  0.0mm 0 W/m2
01:14 36.7 °F /  2.6 °C 30.7 °F /  -0.7 °C 30.5in /  1031.5hPa Calm   2mph /  3.2km/h 79% 0in /  0.0mm 0 W/m2
01:19 36.3 °F /  2.4 °C 30.4 °F /  -0.9 °C 30.5in /  1031.5hPa ESE 0.9mph /  1.4km/h 1mph /  1.6km/h 79% 0in /  0.0mm 0 W/m2
01:24 36.3 °F /  2.4 °C 30.4 °F /  -0.9 °C 30.5in /  1031.5hPa Calm   1mph /  1.6km/h 79% 0in /  0.0mm 0 W/m2
01:29 36.3 °F /  2.4 °C 30.7 °F /  -0.7 °C 30.5in /  1031.5hPa Calm   1mph /  1.6km/h 80% 0in /  0.0mm 0 W/m2
01:34 36.1 °F /  2.3 °C 30.6 °F /  -0.8 °C 30.5in /  1031.2hPa Calm     80% 0in /  0.0mm 0 W/m2
01:44 36.1 °F /  2.3 °C 30.6 °F /  -0.8 °C 30.5in /  1031.2hPa Calm     80% 0in /  0.0mm 0 W/m2
01:49 36.1 °F /  2.3 °C 30.9 °F /  -0.6 °C 30.5in /  1031.2hPa Calm   1mph /  1.6km/h 81% 0in /  0.0mm 0 W/m2
01:54 36.1 °F /  2.3 °C 30.9 °F /  -0.6 °C 30.5in /  1031.2hPa ESE 0.9mph /  1.4km/h 2mph /  3.2km/h 81% 0in /  0.0mm 0 W/m2
01:59 36.1 °F /  2.3 °C 30.9 °F /  -0.6 °C 30.5in /  1031.2hPa Calm     81% 0in /  0.0mm 0 W/m2
02:04 36.3 °F /  2.4 °C 31.1 °F /  -0.5 °C 30.5in /  1031.2hPa Calm   2mph /  3.2km/h 81% 0in /  0.0mm 0 W/m2
Juneau County Weather
Compliments of Weather Underground - 2 mb